createdAt,value
2018-03-14T00:02:08.993Z,30.85
2018-03-14T00:04:36.537Z,33.17
2018-03-14T00:07:04.060Z,30.88
2018-03-14T00:09:31.970Z,26.80
2018-03-14T00:11:59.484Z,29.08
2018-03-14T00:14:26.984Z,26.48
2018-03-14T00:16:54.505Z,27.37
2018-03-14T00:19:22.413Z,26.65
2018-03-14T00:21:50.379Z,31.75
2018-03-14T00:24:17.977Z,31.20
2018-03-14T00:26:45.973Z,29.08
2018-03-14T00:29:13.878Z,28.52
2018-03-14T00:31:41.392Z,28.35
2018-03-14T00:34:08.892Z,28.35
2018-03-14T00:36:36.508Z,27.30
2018-03-14T00:39:04.515Z,24.23
2018-03-14T00:41:32.423Z,26.77
2018-03-14T00:44:00.167Z,25.62
2018-03-14T00:46:27.768Z,27.17
2018-03-14T00:48:55.277Z,27.85
2018-03-14T00:51:22.801Z,27.33
2018-03-14T00:53:50.320Z,27.65
2018-03-14T00:56:18.241Z,29.63
2018-03-14T00:58:45.746Z,31.08
2018-03-14T01:01:13.274Z,30.85
2018-03-14T01:03:40.954Z,28.42
2018-03-14T01:06:08.493Z,29.63
2018-03-14T01:08:35.998Z,27.33
2018-03-14T01:11:03.529Z,29.08
2018-03-14T01:13:31.042Z,25.20
2018-03-14T01:15:58.566Z,24.67
2018-03-14T01:18:26.076Z,24.42
2018-03-14T01:20:53.992Z,24.85
2018-03-14T01:23:21.500Z,24.45
2018-03-14T01:25:49.128Z,22.90
2018-03-14T01:28:17.025Z,24.15
2018-03-14T01:30:44.944Z,22.15
2018-03-14T01:33:12.453Z,23.08
2018-03-14T01:35:39.980Z,22.80
2018-03-14T01:38:07.969Z,22.58
2018-03-14T01:40:35.463Z,23.60
2018-03-14T01:43:03.449Z,23.62
2018-03-14T01:45:30.953Z,24.55
2018-03-14T01:47:58.869Z,24.80
2018-03-14T01:50:26.412Z,24.17
2018-03-14T01:53:06.136Z,26.05
2018-03-14T01:55:33.649Z,28.67
2018-03-14T01:58:01.166Z,28.23
2018-03-14T02:00:29.052Z,28.90
2018-03-14T02:02:57.042Z,29.52
2018-03-14T02:05:25.024Z,28.80
2018-03-14T02:07:52.611Z,29.27
2018-03-14T02:10:20.108Z,30.20
2018-03-14T02:12:48.032Z,29.00
2018-03-14T02:15:15.581Z,30.23
2018-03-14T02:17:43.161Z,27.98
2018-03-14T02:20:10.655Z,29.77
2018-03-14T02:22:38.559Z,26.00
2018-03-14T02:25:06.059Z,27.30
2018-03-14T02:27:33.595Z,26.85
2018-03-14T02:30:01.107Z,26.85
2018-03-14T02:32:28.676Z,27.23
2018-03-14T02:34:56.180Z,27.50
2018-03-14T02:37:23.736Z,25.77
2018-03-14T02:39:51.728Z,28.00
2018-03-14T02:42:19.244Z,28.33
2018-03-14T02:44:46.809Z,29.77
2018-03-14T02:47:14.308Z,28.45
2018-03-14T02:49:41.789Z,27.40
2018-03-14T02:52:09.690Z,31.12
2018-03-14T02:54:37.657Z,29.60
2018-03-14T02:57:05.240Z,28.67
2018-03-14T02:59:32.732Z,30.17
2018-03-14T03:02:00.639Z,30.15
2018-03-14T03:04:28.525Z,29.70
2018-03-14T03:06:56.433Z,30.70
2018-03-14T03:09:23.984Z,29.52
2018-03-14T03:11:51.493Z,30.48
2018-03-14T03:14:19.367Z,29.73
2018-03-14T03:16:46.869Z,31.52
2018-03-14T03:21:52.474Z,32.67
2018-03-14T03:24:20.381Z,32.20
2018-03-14T03:26:48.261Z,33.75
2018-03-14T03:29:16.162Z,34.88
2018-03-14T03:31:44.045Z,29.75
2018-03-14T03:34:11.961Z,30.25
2018-03-14T03:36:39.499Z,30.75
2018-03-14T03:39:07.010Z,29.52
2018-03-14T03:41:34.985Z,28.60
2018-03-14T03:44:02.563Z,32.00
2018-03-14T03:46:30.048Z,32.42
2018-03-14T03:48:57.553Z,28.62
2018-03-14T03:51:25.528Z,31.02
2018-03-14T03:53:53.030Z,31.08
2018-03-14T03:56:20.906Z,30.33
2018-03-14T03:58:48.500Z,29.15
2018-03-14T04:01:16.488Z,29.55
2018-03-14T04:03:43.994Z,29.75
2018-03-14T04:06:11.882Z,30.37
2018-03-14T04:08:39.785Z,29.27
2018-03-14T04:11:07.659Z,31.50
2018-03-14T04:13:35.231Z,29.85
2018-03-14T04:16:02.817Z,28.27
2018-03-14T04:18:30.391Z,30.42
2018-03-14T04:20:57.984Z,29.50
2018-03-14T04:23:25.490Z,28.90
2018-03-14T04:25:53.469Z,27.75
2018-03-14T04:28:21.369Z,27.62
2018-03-14T04:30:49.253Z,27.20
2018-03-14T04:33:17.172Z,30.42
2018-03-14T04:35:44.661Z,29.98
2018-03-14T04:38:12.309Z,30.10
2018-03-14T04:40:39.803Z,29.65
2018-03-14T04:43:07.776Z,31.23
2018-03-14T04:45:35.365Z,31.25
2018-03-14T04:48:02.909Z,31.52
2018-03-14T04:50:30.389Z,34.92
2018-03-14T04:52:57.871Z,32.35
2018-03-14T04:55:25.373Z,33.88
2018-03-14T04:57:52.914Z,33.70
2018-03-14T05:00:20.871Z,34.67
2018-03-14T05:02:48.464Z,33.65
2018-03-14T05:05:15.965Z,32.17
2018-03-14T05:07:43.848Z,34.95
2018-03-14T05:10:11.749Z,37.92
2018-03-14T05:12:39.638Z,37.90
2018-03-14T05:15:07.612Z,38.65
2018-03-14T05:17:35.090Z,37.70
2018-03-14T05:20:02.597Z,36.47
2018-03-14T05:22:30.569Z,39.50
2018-03-14T05:24:58.063Z,39.53
2018-03-14T05:27:25.615Z,38.90
2018-03-14T05:29:53.226Z,41.30
2018-03-14T05:32:20.804Z,40.42
2018-03-14T05:34:48.388Z,42.30
2018-03-14T05:37:15.872Z,39.60
2018-03-14T05:39:43.372Z,40.33
2018-03-14T05:42:11.261Z,41.67
2018-03-14T05:44:38.764Z,44.55
2018-03-14T05:47:06.248Z,42.50
2018-03-14T05:49:33.760Z,46.37
2018-03-14T05:52:01.247Z,45.00
2018-03-14T05:54:28.747Z,42.88
2018-03-14T05:56:56.237Z,45.35
2018-03-14T05:59:23.739Z,47.40
2018-03-14T06:01:51.321Z,47.50
2018-03-14T06:04:18.831Z,45.10
2018-03-14T06:06:46.723Z,46.60
2018-03-14T06:09:14.260Z,43.55
2018-03-14T06:11:41.767Z,47.70
2018-03-14T06:14:09.254Z,46.17
2018-03-14T06:16:37.168Z,45.92
2018-03-14T06:19:04.662Z,34.22
2018-03-14T06:21:32.164Z,36.47
2018-03-14T06:23:59.658Z,38.83
2018-03-14T06:26:27.167Z,44.03
2018-03-14T06:28:54.664Z,45.60
2018-03-14T06:31:22.571Z,42.15
2018-03-14T06:33:50.124Z,43.87
2018-03-14T06:36:17.632Z,42.42
2018-03-14T06:38:45.524Z,47.17
2018-03-14T06:41:13.424Z,46.10
2018-03-14T06:43:40.980Z,46.75
2018-03-14T06:46:08.751Z,47.60
2018-03-14T06:48:36.373Z,45.50
2018-03-14T06:51:04.353Z,22.17
2018-03-14T06:53:32.245Z,19.10
2018-03-14T06:56:00.251Z,36.58
2018-03-14T06:58:40.022Z,36.75
2018-03-14T07:01:21.893Z,35.10
2018-03-14T07:06:49.078Z,38.75
2018-03-14T07:09:16.632Z,40.90
2018-03-14T07:11:44.141Z,40.90
2018-03-14T07:14:12.104Z,40.40
2018-03-14T07:16:39.614Z,40.35
2018-03-14T07:19:07.497Z,39.28
2018-03-14T07:21:35.401Z,40.50
2018-03-14T07:24:03.372Z,37.47
2018-03-14T07:26:30.868Z,36.30
2018-03-14T07:28:58.751Z,36.85
2018-03-14T07:31:26.253Z,35.47
2018-03-14T07:33:54.130Z,33.92
2018-03-14T07:36:21.717Z,32.42
2018-03-14T07:38:49.612Z,32.97
2018-03-14T07:41:17.515Z,28.50
2018-03-14T07:43:45.003Z,30.45
2018-03-14T07:46:12.504Z,28.00
2018-03-14T07:48:40.041Z,28.67
2018-03-14T07:51:07.620Z,29.37
2018-03-14T07:53:35.135Z,32.95
2018-03-14T07:56:03.021Z,31.35
2018-03-14T07:58:30.988Z,30.60
2018-03-14T08:00:58.477Z,30.20
2018-03-14T08:03:25.988Z,29.25
2018-03-14T08:05:53.481Z,30.15
2018-03-14T08:08:21.053Z,25.80
2018-03-14T08:10:48.614Z,27.75
2018-03-14T08:13:16.197Z,22.98
2018-03-14T08:15:43.679Z,21.65
2018-03-14T08:18:11.259Z,22.10
2018-03-14T08:20:38.739Z,24.75
2018-03-14T08:23:06.249Z,22.42
2018-03-14T08:25:34.132Z,22.92
2018-03-14T08:28:01.629Z,21.67
2018-03-14T08:30:29.503Z,19.52
2018-03-14T08:32:57.089Z,14.18
2018-03-14T08:35:24.576Z,13.93
2018-03-14T08:37:52.562Z,15.60
2018-03-14T08:40:20.147Z,17.87
2018-03-14T08:42:47.657Z,17.27
2018-03-14T08:45:15.162Z,16.87
2018-03-14T08:47:42.710Z,17.15
2018-03-14T08:50:10.594Z,16.12
2018-03-14T08:52:38.174Z,14.82
2018-03-14T08:55:05.665Z,16.92
2018-03-14T08:57:33.559Z,18.35
2018-03-14T09:00:01.044Z,19.17
2018-03-14T09:02:29.052Z,16.77
2018-03-14T09:04:57.012Z,17.37
2018-03-14T09:07:24.559Z,16.12
2018-03-14T09:09:52.086Z,17.08
2018-03-14T09:12:19.673Z,16.05
2018-03-14T09:14:47.257Z,15.50
2018-03-14T09:17:14.734Z,13.70
2018-03-14T09:19:42.330Z,15.25
2018-03-14T09:22:09.826Z,14.48
2018-03-14T09:24:37.801Z,14.07
2018-03-14T09:27:05.288Z,14.80
2018-03-14T09:29:32.788Z,13.10
2018-03-14T09:32:00.761Z,11.65
2018-03-14T09:34:28.274Z,14.70
2018-03-14T09:36:55.768Z,12.30
2018-03-14T09:39:23.273Z,13.30
2018-03-14T09:41:50.759Z,15.75
2018-03-14T09:44:18.266Z,13.45
2018-03-14T09:46:45.755Z,12.52
2018-03-14T09:49:13.264Z,12.55
2018-03-14T09:51:40.800Z,10.63
2018-03-14T09:54:08.353Z,11.38
2018-03-14T09:56:36.304Z,11.63
2018-03-14T09:59:03.816Z,12.05
2018-03-14T10:01:31.380Z,11.02
2018-03-14T10:03:59.355Z,11.25
2018-03-14T10:06:26.969Z,11.80
2018-03-14T10:08:54.524Z,10.90
2018-03-14T10:11:22.141Z,11.07
2018-03-14T10:13:49.695Z,10.80
2018-03-14T10:16:17.196Z,10.68
2018-03-14T10:18:45.189Z,11.73
2018-03-14T10:21:13.093Z,11.68
2018-03-14T10:23:40.651Z,11.45
2018-03-14T10:26:08.157Z,11.48
2018-03-14T10:28:35.676Z,10.15
2018-03-14T10:31:03.165Z,10.80
2018-03-14T10:33:30.679Z,11.75
2018-03-14T10:35:58.172Z,12.00
2018-03-14T10:38:26.273Z,11.45
2018-03-14T10:40:54.181Z,13.07
2018-03-14T10:43:22.109Z,13.35
2018-03-14T10:45:49.591Z,13.50
2018-03-14T10:48:17.122Z,13.75
2018-03-14T10:50:44.643Z,12.18
2018-03-14T10:53:12.188Z,13.40
2018-03-14T10:55:39.776Z,13.27
2018-03-14T10:58:07.283Z,11.98
2018-03-14T11:00:40.523Z,14.60
2018-03-14T11:03:13.632Z,13.32
2018-03-14T11:05:41.145Z,13.25
2018-03-14T11:08:08.649Z,12.63
2018-03-14T11:10:36.253Z,13.23
2018-03-14T11:13:04.231Z,14.30
2018-03-14T11:15:31.738Z,14.57
2018-03-14T11:17:59.239Z,14.68
2018-03-14T11:20:26.782Z,14.90
2018-03-14T11:22:54.274Z,14.25
2018-03-14T11:25:21.789Z,12.15
2018-03-14T11:27:49.279Z,11.05
2018-03-14T11:30:16.796Z,11.60
2018-03-14T11:32:44.292Z,11.10
2018-03-14T11:35:11.893Z,12.48
2018-03-14T11:37:39.871Z,11.98
2018-03-14T11:40:07.397Z,10.63
2018-03-14T11:42:34.896Z,11.85
2018-03-14T11:45:02.413Z,11.80
2018-03-14T11:47:29.907Z,12.35
2018-03-14T11:49:57.500Z,10.63
2018-03-14T11:52:25.409Z,12.40
2018-03-14T11:54:52.959Z,13.00
2018-03-14T11:57:20.501Z,12.37
2018-03-14T11:59:47.997Z,10.53
2018-03-14T12:02:15.529Z,11.60
2018-03-14T12:04:43.450Z,13.23
2018-03-14T12:07:10.957Z,11.70
2018-03-14T12:09:38.459Z,11.63
2018-03-14T12:12:05.971Z,12.07
2018-03-14T12:14:33.889Z,12.53
2018-03-14T12:17:01.372Z,12.03
2018-03-14T12:19:28.924Z,12.43
2018-03-14T12:21:56.917Z,13.35
2018-03-14T12:24:24.501Z,11.60
2018-03-14T12:26:52.089Z,13.13
2018-03-14T12:29:19.810Z,12.50
2018-03-14T12:31:47.361Z,11.07
2018-03-14T12:34:14.947Z,10.93
2018-03-14T12:36:42.532Z,10.53
2018-03-14T12:39:10.044Z,11.68
2018-03-14T12:41:37.579Z,9.77
2018-03-14T12:44:05.080Z,9.37
2018-03-14T12:46:32.675Z,10.07
2018-03-14T12:49:00.575Z,10.00
2018-03-14T12:51:28.116Z,11.13
2018-03-14T12:53:55.608Z,9.70
2018-03-14T12:56:23.107Z,9.60
2018-03-14T12:58:50.586Z,8.67
2018-03-14T13:01:18.100Z,10.33
2018-03-14T13:03:45.651Z,11.13
2018-03-14T13:06:13.165Z,8.10
2018-03-14T13:08:40.729Z,8.45
2018-03-14T13:11:08.323Z,8.70
2018-03-14T13:13:36.226Z,10.18
2018-03-14T13:16:04.128Z,9.50
2018-03-14T13:18:31.672Z,27.67
2018-03-14T13:20:59.251Z,14.38
2018-03-14T13:23:26.751Z,10.43
2018-03-14T13:25:54.655Z,10.32
2018-03-14T13:28:22.147Z,10.90
2018-03-14T13:30:49.729Z,8.90
2018-03-14T13:33:17.289Z,8.65
2018-03-14T13:35:45.204Z,9.43
2018-03-14T13:38:12.699Z,6.97
2018-03-14T13:40:40.244Z,6.70
2018-03-14T13:43:07.837Z,7.53
2018-03-14T13:45:35.748Z,7.35
2018-03-14T13:48:03.264Z,5.90
2018-03-14T13:50:30.780Z,6.68
2018-03-14T13:52:58.367Z,5.80
2018-03-14T13:55:25.863Z,6.70
2018-03-14T13:57:53.852Z,8.65
2018-03-14T14:00:21.745Z,7.45
2018-03-14T14:02:49.660Z,7.75
2018-03-14T14:05:17.148Z,8.00
2018-03-14T14:07:44.701Z,5.15
2018-03-14T14:10:12.182Z,7.45
2018-03-14T14:12:39.701Z,8.30
2018-03-14T14:15:07.251Z,7.10
2018-03-14T14:17:34.768Z,6.80
2018-03-14T14:20:02.264Z,6.05
2018-03-14T14:22:29.809Z,7.22
2018-03-14T14:24:57.816Z,6.10
2018-03-14T14:27:25.801Z,6.18
2018-03-14T14:29:53.697Z,6.60
2018-03-14T14:32:21.629Z,6.50
2018-03-14T14:34:49.169Z,6.05
2018-03-14T14:37:16.743Z,7.45
2018-03-14T14:39:44.235Z,6.90
2018-03-14T14:42:12.331Z,7.93
2018-03-14T14:44:40.312Z,7.40
2018-03-14T14:47:07.833Z,7.25
2018-03-14T14:49:35.393Z,6.10
2018-03-14T14:52:03.385Z,7.00
2018-03-14T14:54:30.969Z,7.47
2018-03-14T14:56:58.481Z,6.95
2018-03-14T14:59:26.040Z,5.93
2018-03-14T15:01:53.940Z,6.83
2018-03-14T15:04:21.837Z,6.62
2018-03-14T15:06:49.753Z,6.85
2018-03-14T15:09:17.292Z,6.20
2018-03-14T15:11:44.780Z,6.40
2018-03-14T15:14:12.374Z,5.47
2018-03-14T15:16:40.356Z,6.00
2018-03-14T15:19:07.936Z,6.53
2018-03-14T15:21:35.484Z,5.80
2018-03-14T15:24:03.337Z,5.90
2018-03-14T15:26:31.216Z,6.70
2018-03-14T15:28:58.729Z,5.62
2018-03-14T15:31:26.224Z,4.85
2018-03-14T15:33:53.734Z,5.65
2018-03-14T15:36:21.219Z,5.07
2018-03-14T15:38:48.728Z,4.20
2018-03-14T15:41:16.307Z,4.05
2018-03-14T15:43:43.817Z,4.78
2018-03-14T15:46:11.796Z,5.57
2018-03-14T15:48:39.388Z,6.95
2018-03-14T15:51:07.372Z,5.78
2018-03-14T15:53:35.281Z,5.40
2018-03-14T15:56:03.252Z,5.63
2018-03-14T15:58:30.841Z,5.65
2018-03-14T16:00:58.838Z,5.40
2018-03-14T16:03:26.826Z,5.55
2018-03-14T16:05:54.315Z,5.22
2018-03-14T16:08:22.227Z,5.43
2018-03-14T16:10:50.117Z,6.50
2018-03-14T16:13:18.033Z,5.47
2018-03-14T16:15:45.534Z,4.70
2018-03-14T16:18:13.052Z,4.80
2018-03-14T16:20:40.545Z,5.15
2018-03-14T16:23:08.444Z,5.03
2018-03-14T16:25:36.426Z,4.80
2018-03-14T16:28:04.357Z,5.05
2018-03-14T16:30:31.852Z,4.97
2018-03-14T16:32:59.509Z,6.40
2018-03-14T16:35:27.025Z,5.53
2018-03-14T16:37:54.782Z,3.42
2018-03-14T16:40:22.303Z,5.30
2018-03-14T16:42:49.818Z,6.30
2018-03-14T16:45:17.817Z,6.20
2018-03-14T16:47:45.431Z,6.57
2018-03-14T16:50:13.046Z,5.40
2018-03-14T16:52:40.514Z,5.32
2018-03-14T16:55:08.034Z,5.20
2018-03-14T16:57:35.529Z,6.07
2018-03-14T17:00:03.157Z,5.72
2018-03-14T17:02:30.653Z,6.20
2018-03-14T17:04:58.177Z,8.50
2018-03-14T17:07:25.769Z,8.07
2018-03-14T17:09:53.285Z,9.30
2018-03-14T17:12:20.858Z,7.68
2018-03-14T17:14:48.766Z,7.10
2018-03-14T17:17:16.342Z,6.57
2018-03-14T17:19:44.252Z,7.10
2018-03-14T17:22:11.817Z,6.25
2018-03-14T17:24:39.788Z,6.35
2018-03-14T17:27:07.381Z,6.68
2018-03-14T17:29:34.933Z,7.30
2018-03-14T17:32:02.444Z,6.22
2018-03-14T17:34:30.033Z,5.82
2018-03-14T17:36:57.536Z,5.72
2018-03-14T17:39:25.510Z,6.82
2018-03-14T17:41:52.997Z,7.03
2018-03-14T17:44:20.501Z,9.05
2018-03-14T17:46:48.495Z,10.45
2018-03-14T17:49:16.401Z,8.70
2018-03-14T17:51:43.953Z,5.78
2018-03-14T17:54:11.534Z,12.95
2018-03-14T17:56:39.146Z,6.18
2018-03-14T17:59:07.044Z,7.50
2018-03-14T18:01:34.538Z,6.30
2018-03-14T18:04:02.184Z,10.70
2018-03-14T18:06:29.770Z,9.52
2018-03-14T18:08:57.265Z,7.50
2018-03-14T18:11:25.244Z,7.28
2018-03-14T18:13:52.917Z,6.22
2018-03-14T18:16:20.543Z,6.60
2018-03-14T18:18:48.039Z,6.72
2018-03-14T18:21:15.557Z,6.82
2018-03-14T18:23:43.068Z,5.10
2018-03-14T18:26:10.607Z,5.95
2018-03-14T18:28:38.113Z,5.30
2018-03-14T18:31:05.721Z,6.07
2018-03-14T18:33:33.204Z,6.68
2018-03-14T18:36:00.713Z,6.97
2018-03-14T18:38:28.204Z,6.12
2018-03-14T18:40:55.716Z,6.45
2018-03-14T18:43:23.237Z,7.93
2018-03-14T18:45:50.743Z,6.75
2018-03-14T18:48:18.228Z,6.10
2018-03-14T18:50:46.125Z,6.87
2018-03-14T18:53:13.611Z,7.57
2018-03-14T18:55:41.144Z,7.43
2018-03-14T18:58:08.640Z,6.70
2018-03-14T19:00:36.140Z,5.85
2018-03-14T19:03:04.014Z,6.78
2018-03-14T19:05:31.648Z,7.05
2018-03-14T19:07:59.180Z,7.07
2018-03-14T19:10:26.773Z,6.93
2018-03-14T19:12:54.252Z,6.47
2018-03-14T19:15:21.797Z,6.53
2018-03-14T19:17:49.316Z,6.65
2018-03-14T19:20:16.900Z,5.93
2018-03-14T19:22:44.394Z,6.47
2018-03-14T19:25:11.936Z,6.93
2018-03-14T19:27:39.420Z,7.40
2018-03-14T19:30:06.895Z,6.37
2018-03-14T19:32:34.400Z,6.93
2018-03-14T19:35:01.936Z,6.60
2018-03-14T19:37:29.828Z,6.22
2018-03-14T19:39:57.794Z,6.15
2018-03-14T19:42:25.386Z,6.60
2018-03-14T19:44:52.873Z,7.05
2018-03-14T19:47:20.373Z,7.47
2018-03-14T19:49:48.340Z,7.25
2018-03-14T19:52:15.930Z,7.25
2018-03-14T19:54:43.508Z,7.35
2018-03-14T19:57:11.013Z,6.85
2018-03-14T19:59:38.568Z,7.07
2018-03-14T20:02:06.068Z,8.70
2018-03-14T20:04:34.078Z,7.70
2018-03-14T20:07:01.594Z,8.35
2018-03-14T20:09:29.118Z,7.37
2018-03-14T20:11:57.029Z,7.47
2018-03-14T20:14:24.916Z,8.30
2018-03-14T20:16:52.818Z,8.18
2018-03-14T20:19:20.376Z,8.15
2018-03-14T20:21:47.867Z,7.62
2018-03-14T20:24:15.370Z,7.12
2018-03-14T20:26:43.334Z,9.00
2018-03-14T20:29:10.816Z,7.72
2018-03-14T20:31:38.400Z,9.48
2018-03-14T20:34:05.879Z,9.43
2018-03-14T20:36:33.387Z,9.80
2018-03-14T20:39:01.298Z,9.23
2018-03-14T20:41:28.847Z,8.98
2018-03-14T20:43:56.350Z,9.20
2018-03-14T20:46:24.325Z,9.63
2018-03-14T20:48:51.832Z,9.50
2018-03-14T20:51:19.345Z,10.57
2018-03-14T20:53:46.877Z,9.85
2018-03-14T20:56:14.524Z,10.90
2018-03-14T20:58:42.435Z,10.60
2018-03-14T21:01:09.936Z,10.10
2018-03-14T21:03:37.445Z,10.85
2018-03-14T21:06:05.404Z,10.85
2018-03-14T21:08:32.921Z,11.18
2018-03-14T21:11:00.869Z,12.80
2018-03-14T21:13:28.457Z,11.90
2018-03-14T21:15:56.109Z,12.40
2018-03-14T21:18:23.613Z,11.40
2018-03-14T21:20:51.196Z,11.15
2018-03-14T21:23:18.713Z,11.48
2018-03-14T21:25:46.221Z,11.15
2018-03-14T21:28:14.182Z,12.07
2018-03-14T21:30:41.699Z,11.85
2018-03-14T21:33:09.677Z,11.10
2018-03-14T21:35:37.243Z,12.40
2018-03-14T21:38:04.746Z,11.65
2018-03-14T21:40:32.753Z,13.27
2018-03-14T21:43:00.724Z,12.55
2018-03-14T21:45:28.334Z,12.95
2018-03-14T21:47:55.821Z,13.07
2018-03-14T21:50:23.716Z,12.95
2018-03-14T21:52:51.214Z,13.70
2018-03-14T21:55:18.708Z,14.65
2018-03-14T21:57:46.237Z,13.13
2018-03-14T22:00:13.828Z,13.82
2018-03-14T22:02:41.737Z,14.30
2018-03-14T22:05:09.627Z,14.10
2018-03-14T22:07:37.537Z,15.60
2018-03-14T22:10:05.029Z,13.88
2018-03-14T22:12:32.527Z,13.75
2018-03-14T22:15:00.015Z,14.65
2018-03-14T22:17:27.508Z,13.60
2018-03-14T22:19:55.037Z,14.52
2018-03-14T22:22:22.898Z,14.38
2018-03-14T22:24:50.406Z,13.95
2018-03-14T22:27:18.285Z,14.80
2018-03-14T22:29:45.861Z,14.43
2018-03-14T22:32:13.765Z,13.75
2018-03-14T22:34:41.335Z,13.27
2018-03-14T22:37:08.983Z,12.52
2018-03-14T22:39:36.845Z,12.27
2018-03-14T22:42:04.738Z,11.52
2018-03-14T22:44:32.257Z,13.60
2018-03-14T22:46:59.800Z,13.00
2018-03-14T22:49:27.275Z,11.50
2018-03-14T22:51:55.152Z,14.30
2018-03-14T22:54:22.658Z,13.10
2018-03-14T22:56:50.550Z,12.90
2018-03-14T22:59:18.525Z,13.13
2018-03-14T23:01:46.008Z,11.82
2018-03-14T23:04:13.521Z,12.73
2018-03-14T23:06:41.004Z,14.07
2018-03-14T23:09:08.505Z,13.32
2018-03-14T23:11:36.041Z,12.50
2018-03-14T23:14:03.549Z,13.62
2018-03-14T23:16:31.049Z,13.38
2018-03-14T23:18:58.557Z,13.07
2018-03-14T23:21:26.081Z,13.93
2018-03-14T23:23:53.981Z,13.93
2018-03-14T23:26:21.961Z,12.32
2018-03-14T23:28:49.456Z,12.43
2018-03-14T23:31:17.340Z,13.45
2018-03-14T23:33:44.912Z,13.90
2018-03-14T23:36:12.419Z,14.93
2018-03-14T23:38:40.321Z,12.95
2018-03-14T23:41:08.293Z,12.20
2018-03-14T23:43:35.781Z,12.43
2018-03-14T23:46:03.764Z,13.65
2018-03-14T23:48:31.276Z,13.60
2018-03-14T23:50:59.167Z,13.55
2018-03-14T23:53:27.044Z,12.15
2018-03-14T23:55:55.034Z,12.85
2018-03-14T23:58:22.926Z,12.43
